Time;durP1;ratioP1;P1;durP2;ratioP2;P2;SDS_P1;SDS_P2;PMS_P1;PMS_P2;Temp;Humidity;BMP_temperature;BMP_pressure;BME280_temperature;BME280_humidity;BME280_pressure;Samples;Min_cycle;Max_cycle;Signal;HPM_P1;HPM_P2
2022/05/24 00:01:39;;;;;;;;;;;15.20;99.90;;;;;;5073234;28;19915;-76
2022/05/24 00:04:05;;;;;;;;;;;15.20;99.90;;;;;;5066686;28;20400;-73
2022/05/24 00:06:31;;;;;;;;;;;15.30;99.90;;;;;;5060517;28;19908;-73
2022/05/24 00:08:57;;;;;;;;;;;15.30;99.90;;;;;;5047746;28;20446;-73
2022/05/24 00:11:23;;;;;;;;;;;15.30;99.90;;;;;;5073609;28;19920;-73
2022/05/24 00:13:48;;;;;;;;;;;15.40;99.90;;;;;;5071669;28;20289;-75
2022/05/24 00:16:14;;;;;;;;;;;15.50;99.90;;;;;;5054063;28;19967;-76
2022/05/24 00:18:40;;;;;;;;;;;15.50;99.90;;;;;;5073210;28;19954;-73
2022/05/24 00:21:06;;;;;;;;;;;15.60;99.90;;;;;;5066907;28;19908;-73
2022/05/24 00:23:31;;;;;;;;;;;15.70;99.90;;;;;;5063221;28;19935;-76
2022/05/24 00:26:04;;;;;;;;;;;15.40;99.90;;;;;;5053876;28;20366;-73
2022/05/24 00:28:30;;;;;;;;;;;15.20;99.90;;;;;;5054056;28;19912;-73
2022/05/24 00:30:56;;;;;;;;;;;15.10;99.90;;;;;;5072391;28;20467;-73
2022/05/24 00:33:21;;;;;;;;;;;15.10;99.90;;;;;;5072123;28;19908;-73
2022/05/24 00:35:47;;;;;;;;;;;15.00;99.90;;;;;;5073046;28;19909;-75
2022/05/24 00:38:16;;;;;;;;;;;15.10;99.90;;;;;;5059695;28;19936;-76
2022/05/24 00:40:44;;;;;;;;;;;15.10;99.90;;;;;;5059894;28;19915;-74
2022/05/24 00:43:15;;;;;;;;;;;15.00;99.90;;;;;;5072153;28;19912;-73
2022/05/24 00:45:43;;;;;;;;;;;15.00;99.90;;;;;;5072819;28;19984;-76
2022/05/24 00:48:29;;;;;;;;;;;14.90;99.90;;;;;;5063103;28;19916;-77
2022/05/24 00:50:55;;;;;;;;;;;14.90;99.90;;;;;;5070744;28;19924;-73
2022/05/24 00:53:35;;;;;;;;;;;14.90;99.90;;;;;;5053331;28;20003;-79
2022/05/24 00:56:12;;;;;;;;;;;14.90;99.90;;;;;;5053485;28;19909;-78
2022/05/24 00:58:47;;;;;;;;;;;14.80;99.90;;;;;;5055588;28;19963;-73
2022/05/24 01:01:20;;;;;;;;;;;14.70;99.90;;;;;;5060027;28;19962;-81
2022/05/24 01:03:45;;;;;;;;;;;14.60;99.90;;;;;;5052566;28;20278;-76
2022/05/24 01:06:11;;;;;;;;;;;14.60;99.90;;;;;;5053266;28;19997;-72
2022/05/24 01:08:37;;;;;;;;;;;14.60;99.90;;;;;;5072333;28;19908;-73
2022/05/24 01:11:03;;;;;;;;;;;14.50;99.90;;;;;;5072892;28;20360;-73
2022/05/24 01:13:30;;;;;;;;;;;14.50;99.90;;;;;;5066291;28;19931;-73
2022/05/24 01:15:55;;;;;;;;;;;14.40;99.90;;;;;;5053815;28;19955;-73
2022/05/24 01:18:21;;;;;;;;;;;14.40;99.90;;;;;;5059802;28;19913;-73
2022/05/24 01:20:51;;;;;;;;;;;14.30;99.90;;;;;;5052798;28;19909;-73
2022/05/24 01:23:31;;;;;;;;;;;14.20;99.90;;;;;;5055326;28;19971;-73
2022/05/24 01:26:01;;;;;;;;;;;14.20;99.90;;;;;;5039500;28;19909;-73
2022/05/24 01:28:31;;;;;;;;;;;14.30;99.90;;;;;;5052514;28;19909;-73
2022/05/24 01:30:57;;;;;;;;;;;14.30;99.90;;;;;;5053812;28;20350;-73
2022/05/24 01:36:10;;;;;;;;;;;14.30;99.90;;;;;;5052344;28;19955;-73
2022/05/24 01:38:47;;;;;;;;;;;14.30;99.90;;;;;;5055791;28;19912;-76
2022/05/24 01:41:16;;;;;;;;;;;14.30;99.90;;;;;;5054521;28;19920;-73
2022/05/24 01:43:43;;;;;;;;;;;14.40;99.90;;;;;;5063021;28;19912;-77
2022/05/24 01:46:10;;;;;;;;;;;14.30;99.90;;;;;;5065335;28;19912;-73
2022/05/24 01:48:41;;;;;;;;;;;14.20;99.90;;;;;;5071697;28;19964;-74
2022/05/24 01:51:08;;;;;;;;;;;14.00;99.90;;;;;;5066885;28;19909;-76
2022/05/24 01:53:37;;;;;;;;;;;13.90;99.90;;;;;;5055200;28;19913;-73
2022/05/24 01:56:05;;;;;;;;;;;13.90;99.90;;;;;;5070754;28;19952;-73
2022/05/24 01:58:32;;;;;;;;;;;13.80;99.90;;;;;;5053199;28;19951;-77
2022/05/24 02:01:03;;;;;;;;;;;13.80;99.90;;;;;;5063931;28;20360;-73
2022/05/24 02:03:28;;;;;;;;;;;13.70;99.90;;;;;;5070691;28;19916;-73
2022/05/24 02:05:54;;;;;;;;;;;13.60;99.90;;;;;;5071373;28;19999;-73
2022/05/24 02:08:19;;;;;;;;;;;13.60;99.90;;;;;;5064769;28;19971;-73
2022/05/24 02:10:48;;;;;;;;;;;13.60;99.90;;;;;;5071497;28;19909;-78
2022/05/24 02:13:19;;;;;;;;;;;13.50;99.90;;;;;;5051780;28;19931;-73
2022/05/24 02:15:46;;;;;;;;;;;13.50;99.90;;;;;;5052021;28;20003;-73
2022/05/24 02:18:13;;;;;;;;;;;13.50;99.90;;;;;;5051964;28;20056;-73
2022/05/24 02:20:40;;;;;;;;;;;13.40;99.90;;;;;;5051988;28;20305;-73
2022/05/24 02:23:06;;;;;;;;;;;13.40;99.90;;;;;;5050879;28;20377;-75
2022/05/24 02:25:37;;;;;;;;;;;13.40;99.90;;;;;;5068028;28;19915;-76
2022/05/24 02:28:08;;;;;;;;;;;13.40;99.90;;;;;;5065893;28;20280;-73
2022/05/24 02:30:34;;;;;;;;;;;13.40;99.90;;;;;;5058313;28;19917;-76
2022/05/24 02:33:00;;;;;;;;;;;13.30;99.90;;;;;;5049994;28;20004;-73
2022/05/24 02:35:25;;;;;;;;;;;13.20;99.90;;;;;;5051380;28;19944;-77
2022/05/24 02:37:51;;;;;;;;;;;13.10;99.90;;;;;;5051477;28;19955;-73
2022/05/24 02:43:00;;;;;;;;;;;13.00;99.90;;;;;;5039407;28;19978;-73
2022/05/24 02:45:26;;;;;;;;;;;13.00;99.90;;;;;;5050918;28;20362;-77
2022/05/24 02:47:51;;;;;;;;;;;13.10;99.90;;;;;;5050166;28;20267;-73
2022/05/24 02:50:20;;;;;;;;;;;13.10;99.90;;;;;;5051179;28;19917;-74
2022/05/24 02:52:46;;;;;;;;;;;13.10;99.90;;;;;;5055681;28;19920;-73
2022/05/24 02:55:14;;;;;;;;;;;13.10;99.90;;;;;;5055188;28;20309;-79
2022/05/24 02:57:40;;;;;;;;;;;13.10;99.90;;;;;;5051803;28;19909;-73
2022/05/24 03:00:08;;;;;;;;;;;13.10;99.90;;;;;;5051105;28;19909;-73
2022/05/24 03:02:33;;;;;;;;;;;13.10;99.90;;;;;;5044553;28;20003;-74
2022/05/24 03:04:59;;;;;;;;;;;13.10;99.90;;;;;;5050511;28;20417;-73
2022/05/24 03:10:09;;;;;;;;;;;13.10;99.90;;;;;;5047354;28;20409;-73
2022/05/24 03:15:19;;;;;;;;;;;13.00;99.90;;;;;;5050865;28;19916;-76
2022/05/24 03:17:44;;;;;;;;;;;13.10;99.90;;;;;;5057939;28;19913;-73
2022/05/24 03:20:10;;;;;;;;;;;13.10;99.90;;;;;;5051268;28;19915;-73
2022/05/24 03:22:35;;;;;;;;;;;13.10;99.90;;;;;;5050109;28;19908;-73
2022/05/24 03:25:01;;;;;;;;;;;13.20;99.90;;;;;;5052817;28;19952;-76
2022/05/24 03:27:26;;;;;;;;;;;13.20;99.90;;;;;;5051099;28;19913;-73
2022/05/24 03:29:52;;;;;;;;;;;13.10;99.90;;;;;;5051194;28;19915;-73
2022/05/24 03:32:18;;;;;;;;;;;13.10;99.90;;;;;;5052977;28;19996;-74
2022/05/24 03:34:44;;;;;;;;;;;13.20;99.90;;;;;;5067890;28;19995;-73
2022/05/24 03:37:09;;;;;;;;;;;13.20;99.90;;;;;;5051278;28;19948;-74
2022/05/24 03:39:35;;;;;;;;;;;13.20;99.90;;;;;;5050922;28;20349;-77
2022/05/24 03:42:00;;;;;;;;;;;13.10;99.90;;;;;;5052436;28;19982;-73
2022/05/24 03:44:26;;;;;;;;;;;13.10;99.90;;;;;;5049895;28;20366;-73
2022/05/24 03:46:52;;;;;;;;;;;13.10;99.90;;;;;;5051050;28;19909;-73
2022/05/24 03:49:18;;;;;;;;;;;13.20;99.90;;;;;;5058059;28;20351;-73
2022/05/24 03:51:44;;;;;;;;;;;13.30;99.90;;;;;;5056106;28;20016;-73
2022/05/24 03:54:09;;;;;;;;;;;13.30;99.90;;;;;;5050316;28;20385;-79
2022/05/24 03:56:35;;;;;;;;;;;13.30;99.90;;;;;;5050887;28;20405;-73
2022/05/24 03:59:01;;;;;;;;;;;13.20;99.90;;;;;;5053125;28;19942;-73
2022/05/24 04:01:26;;;;;;;;;;;13.20;99.90;;;;;;5073497;28;19912;-73
2022/05/24 04:03:52;;;;;;;;;;;13.10;99.90;;;;;;5067222;28;20404;-73
2022/05/24 04:06:17;;;;;;;;;;;13.10;99.90;;;;;;5073518;28;19908;-79
2022/05/24 04:08:45;;;;;;;;;;;13.10;99.90;;;;;;5073937;28;19959;-73
2022/05/24 04:11:11;;;;;;;;;;;13.00;99.90;;;;;;5062385;28;19909;-73
2022/05/24 04:13:38;;;;;;;;;;;13.00;99.90;;;;;;5054860;28;20357;-73
2022/05/24 04:16:04;;;;;;;;;;;13.00;99.90;;;;;;5056816;28;20385;-73
2022/05/24 04:18:29;;;;;;;;;;;13.10;99.90;;;;;;5055379;28;20004;-73
2022/05/24 04:20:55;;;;;;;;;;;13.00;99.90;;;;;;5072758;28;19909;-73
2022/05/24 04:23:21;;;;;;;;;;;13.00;99.90;;;;;;5072569;28;19919;-73
2022/05/24 04:25:47;;;;;;;;;;;13.10;99.90;;;;;;5069676;28;19909;-72
2022/05/24 04:28:13;;;;;;;;;;;13.20;99.90;;;;;;5072102;28;19943;-73
2022/05/24 04:30:39;;;;;;;;;;;13.40;99.90;;;;;;5073691;28;19995;-72
2022/05/24 04:33:05;;;;;;;;;;;13.40;99.90;;;;;;5068974;28;19971;-77
2022/05/24 04:35:30;;;;;;;;;;;13.30;99.90;;;;;;5054324;28;20000;-76
2022/05/24 04:37:56;;;;;;;;;;;13.30;99.90;;;;;;5054112;28;19909;-73
2022/05/24 04:42:18;;;;;;;;;;;13.30;99.90;;;;;;5060145;28;20011;-71
2022/05/24 04:43:07;;;;;;;;;;;13.30;99.90;;;;;;5065495;28;19912;-72
2022/05/24 04:45:33;;;;;;;;;;;13.30;99.90;;;;;;5059186;28;20412;-74
2022/05/24 04:47:58;;;;;;;;;;;13.30;99.90;;;;;;5061459;28;19913;-72
2022/05/24 04:50:24;;;;;;;;;;;13.30;99.90;;;;;;5064807;28;19955;-72
2022/05/24 04:52:49;;;;;;;;;;;13.40;99.90;;;;;;5065044;28;19924;-73
2022/05/24 04:55:15;;;;;;;;;;;13.40;99.90;;;;;;5058413;28;20285;-72
2022/05/24 04:57:40;;;;;;;;;;;13.40;99.90;;;;;;5073541;28;19909;-74
2022/05/24 05:00:12;;;;;;;;;;;13.50;99.90;;;;;;5073507;28;19909;-73
2022/05/24 05:02:38;;;;;;;;;;;13.70;99.90;;;;;;5072636;28;19908;-74
2022/05/24 05:05:04;;;;;;;;;;;13.90;99.90;;;;;;5072205;28;19913;-74
2022/05/24 05:07:29;;;;;;;;;;;14.10;99.90;;;;;;5073836;28;19997;-74
2022/05/24 05:09:55;;;;;;;;;;;14.20;99.90;;;;;;5072086;28;19909;-73
2022/05/24 05:12:20;;;;;;;;;;;14.20;99.90;;;;;;5063495;28;19909;-73
2022/05/24 05:14:46;;;;;;;;;;;14.30;99.90;;;;;;5054124;28;19908;-73
2022/05/24 05:17:11;;;;;;;;;;;14.30;99.90;;;;;;5053653;28;19940;-73
2022/05/24 05:19:37;;;;;;;;;;;14.40;99.90;;;;;;5052134;28;19948;-73
2022/05/24 05:22:03;;;;;;;;;;;14.40;99.90;;;;;;5052590;28;19912;-73
2022/05/24 05:24:29;;;;;;;;;;;14.50;99.90;;;;;;5052867;28;19916;-74
2022/05/24 05:26:54;;;;;;;;;;;14.50;99.90;;;;;;5053317;28;19909;-74
2022/05/24 05:31:16;;;;;;;;;;;14.70;99.90;;;;;;5053507;28;20007;-74
2022/05/24 05:32:05;;;;;;;;;;;15.00;99.90;;;;;;5052626;28;19915;-74
2022/05/24 05:34:31;;;;;;;;;;;15.30;99.90;;;;;;5052334;28;20000;-74
2022/05/24 05:36:56;;;;;;;;;;;15.50;99.90;;;;;;5053403;28;19963;-74
2022/05/24 05:39:21;;;;;;;;;;;15.60;99.90;;;;;;5051933;28;19908;-74
2022/05/24 05:41:47;;;;;;;;;;;15.70;99.90;;;;;;5052726;28;20279;-74
2022/05/24 05:44:12;;;;;;;;;;;15.60;99.90;;;;;;5054520;28;19973;-74
2022/05/24 05:46:38;;;;;;;;;;;15.60;99.90;;;;;;5052918;28;19909;-74
2022/05/24 05:49:05;;;;;;;;;;;15.70;99.90;;;;;;5053550;28;19921;-73
2022/05/24 05:51:30;;;;;;;;;;;15.80;99.90;;;;;;5052635;28;19908;-74
2022/05/24 05:53:56;;;;;;;;;;;16.00;99.90;;;;;;5052228;28;19915;-74
2022/05/24 05:56:22;;;;;;;;;;;16.00;99.90;;;;;;5052957;28;19909;-73
2022/05/24 05:58:50;;;;;;;;;;;16.00;99.90;;;;;;5053287;28;19908;-74
2022/05/24 06:01:17;;;;;;;;;;;15.90;99.90;;;;;;5053027;28;20281;-74
2022/05/24 06:03:43;;;;;;;;;;;16.10;99.90;;;;;;5052712;28;19913;-74
2022/05/24 06:06:09;;;;;;;;;;;16.40;99.90;;;;;;5053520;28;19909;-74
2022/05/24 06:08:35;;;;;;;;;;;16.70;99.90;;;;;;5052814;28;20292;-74
2022/05/24 06:11:00;;;;;;;;;;;16.70;99.90;;;;;;5052571;28;20004;-74
2022/05/24 06:13:27;;;;;;;;;;;16.80;99.90;;;;;;5050886;28;19980;-74
2022/05/24 06:15:55;;;;;;;;;;;16.80;99.90;;;;;;5054325;28;19909;-74
2022/05/24 06:18:20;;;;;;;;;;;16.90;99.90;;;;;;5054448;28;20008;-74
2022/05/24 06:20:46;;;;;;;;;;;17.10;99.90;;;;;;5054818;28;20006;-74
2022/05/24 06:23:11;;;;;;;;;;;17.10;99.90;;;;;;5051814;28;20384;-74
2022/05/24 06:25:39;;;;;;;;;;;16.80;99.90;;;;;;5053171;28;19916;-73
2022/05/24 06:28:05;;;;;;;;;;;16.80;99.90;;;;;;5053049;28;19913;-75
2022/05/24 06:30:31;;;;;;;;;;;16.90;99.90;;;;;;5053424;28;20033;-75
2022/05/24 06:32:57;;;;;;;;;;;17.20;99.90;;;;;;5051818;28;20494;-75
2022/05/24 06:35:22;;;;;;;;;;;17.30;99.90;;;;;;5045517;28;19951;-74
2022/05/24 06:37:48;;;;;;;;;;;17.30;99.90;;;;;;5052741;28;19912;-75
2022/05/24 06:40:15;;;;;;;;;;;17.40;99.90;;;;;;5052830;28;19913;-75
2022/05/24 06:42:40;;;;;;;;;;;17.20;99.90;;;;;;5051671;28;19909;-75
2022/05/24 06:45:08;;;;;;;;;;;17.00;99.90;;;;;;5051139;28;19916;-75
2022/05/24 06:47:34;;;;;;;;;;;17.20;99.90;;;;;;5050924;28;19919;-75
2022/05/24 06:49:59;;;;;;;;;;;17.40;99.90;;;;;;5052025;28;20311;-75
2022/05/24 06:52:25;;;;;;;;;;;17.60;99.90;;;;;;5050952;28;19909;-75
2022/05/24 06:54:51;;;;;;;;;;;17.20;99.90;;;;;;5051365;28;20060;-75
2022/05/24 06:57:17;;;;;;;;;;;16.90;99.90;;;;;;5053603;28;19916;-75
2022/05/24 07:02:26;;;;;;;;;;;16.70;99.90;;;;;;5049237;28;19916;-75
2022/05/24 07:04:59;;;;;;;;;;;16.70;99.90;;;;;;5051323;28;19913;-75
2022/05/24 07:07:25;;;;;;;;;;;16.70;99.90;;;;;;5046153;28;20380;-75
2022/05/24 07:09:51;;;;;;;;;;;16.60;99.90;;;;;;5059543;28;19908;-75
2022/05/24 07:12:18;;;;;;;;;;;16.30;99.90;;;;;;5064508;28;20281;-75
2022/05/24 07:14:43;;;;;;;;;;;16.00;99.90;;;;;;5055896;28;19912;-76
2022/05/24 07:17:09;;;;;;;;;;;14.90;99.90;;;;;;5056601;28;19915;-77
2022/05/24 07:19:34;;;;;;;;;;;11.80;99.90;;;;;;5051307;28;20374;-77
2022/05/24 07:22:00;;;;;;;;;;;11.20;99.90;;;;;;5070078;28;19915;-77
2022/05/24 07:24:26;;;;;;;;;;;11.10;99.90;;;;;;5065219;28;19912;-77
2022/05/24 07:26:51;;;;;;;;;;;11.00;99.90;;;;;;5058832;28;20010;-77
2022/05/24 07:29:17;;;;;;;;;;;11.20;99.90;;;;;;5058800;28;20255;-77
2022/05/24 07:31:42;;;;;;;;;;;11.30;99.90;;;;;;5059133;28;19909;-77
2022/05/24 07:34:08;;;;;;;;;;;11.30;99.90;;;;;;5065683;28;20258;-77
2022/05/24 07:36:33;;;;;;;;;;;11.40;99.90;;;;;;5073132;28;19912;-76
2022/05/24 07:38:59;;;;;;;;;;;11.50;99.90;;;;;;5074467;28;19913;-77
2022/05/24 07:46:53;;;;;;;;;;;12.10;99.90;;;;;;5058360;28;19954;-76
2022/05/24 07:49:18;;;;;;;;;;;12.30;99.90;;;;;;5053255;28;19916;-75
2022/05/24 07:51:44;;;;;;;;;;;12.50;99.90;;;;;;5050109;28;19920;-76
2022/05/24 07:54:09;;;;;;;;;;;12.70;99.90;;;;;;5049671;28;19909;-75
2022/05/24 07:56:35;;;;;;;;;;;13.00;99.90;;;;;;5058934;28;19909;-75
2022/05/24 07:59:00;;;;;;;;;;;13.10;99.90;;;;;;5056936;28;19970;-75
2022/05/24 08:01:26;;;;;;;;;;;13.10;99.90;;;;;;5051478;28;19916;-75
2022/05/24 08:03:52;;;;;;;;;;;13.30;99.90;;;;;;5065801;28;20373;-76
2022/05/24 08:06:17;;;;;;;;;;;13.30;99.90;;;;;;5057222;28;19944;-75
2022/05/24 08:08:43;;;;;;;;;;;13.50;99.90;;;;;;5058426;28;19910;-75
2022/05/24 08:11:08;;;;;;;;;;;13.70;99.90;;;;;;5063507;28;20314;-75
2022/05/24 08:13:35;;;;;;;;;;;13.70;99.90;;;;;;5061821;28;19908;-74
2022/05/24 08:16:00;;;;;;;;;;;13.60;99.90;;;;;;5056815;28;20370;-75
2022/05/24 08:18:26;;;;;;;;;;;13.60;99.90;;;;;;5056969;28;19916;-76
2022/05/24 08:20:52;;;;;;;;;;;13.50;99.90;;;;;;5057056;28;19916;-76
2022/05/24 08:23:19;;;;;;;;;;;13.80;99.90;;;;;;5052982;28;19966;-76
2022/05/24 08:25:44;;;;;;;;;;;14.10;99.90;;;;;;5068174;28;20008;-76
2022/05/24 08:28:10;;;;;;;;;;;14.50;99.90;;;;;;5060384;28;19916;-75
2022/05/24 08:30:36;;;;;;;;;;;15.00;99.90;;;;;;5062141;28;19951;-75
2022/05/24 08:33:04;;;;;;;;;;;15.20;99.90;;;;;;5056415;28;20154;-75
2022/05/24 08:35:31;;;;;;;;;;;15.60;99.90;;;;;;5056243;28;19936;-75
2022/05/24 08:37:56;;;;;;;;;;;15.80;99.90;;;;;;5056018;28;19909;-75
2022/05/24 08:40:22;;;;;;;;;;;15.90;99.90;;;;;;5056450;28;19915;-75
2022/05/24 08:42:48;;;;;;;;;;;16.10;99.90;;;;;;5061514;28;19909;-75
2022/05/24 08:50:47;;;;;;;;;;;15.90;99.90;;;;;;5054032;28;19923;-75
2022/05/24 08:53:16;;;;;;;;;;;16.00;99.90;;;;;;5053067;28;19955;-74
2022/05/24 08:55:43;;;;;;;;;;;16.10;99.90;;;;;;5069706;28;19909;-75
2022/05/24 08:58:24;;;;;;;;;;;16.00;99.90;;;;;;5073488;28;19909;-76
2022/05/24 09:00:50;;;;;;;;;;;15.80;99.90;;;;;;5072438;28;19954;-76
2022/05/24 09:03:16;;;;;;;;;;;15.70;99.90;;;;;;5070663;28;19913;-74
2022/05/24 09:05:46;;;;;;;;;;;15.80;99.90;;;;;;5073265;28;19975;-74
2022/05/24 09:08:26;;;;;;;;;;;15.90;99.90;;;;;;5072780;28;19908;-76
2022/05/24 09:10:51;;;;;;;;;;;16.40;99.90;;;;;;5072416;28;20357;-76
2022/05/24 09:13:26;;;;;;;;;;;17.00;99.90;;;;;;5055048;28;19913;-76
2022/05/24 09:15:55;;;;;;;;;;;17.70;99.90;;;;;;5054832;28;20007;-76
2022/05/24 09:18:21;;;;;;;;;;;17.50;99.90;;;;;;5054156;28;20354;-76
2022/05/24 09:20:46;;;;;;;;;;;17.70;99.90;;;;;;5072370;28;19923;-75
2022/05/24 09:23:13;;;;;;;;;;;17.70;99.90;;;;;;5045262;28;20321;-75
2022/05/24 09:25:56;;;;;;;;;;;17.80;99.90;;;;;;5049122;28;19909;-75
2022/05/24 09:28:42;;;;;;;;;;;18.70;99.90;;;;;;5060165;28;19948;-75
2022/05/24 09:31:08;;;;;;;;;;;19.20;99.90;;;;;;5050348;28;19920;-75
2022/05/24 09:33:39;;;;;;;;;;;20.90;99.40;;;;;;5052091;28;19913;-75
2022/05/24 09:36:04;;;;;;;;;;;19.40;96.50;;;;;;5053483;28;20351;-75
2022/05/24 09:38:36;;;;;;;;;;;17.50;98.50;;;;;;5052781;28;19984;-75
2022/05/24 09:41:14;;;;;;;;;;;17.30;99.90;;;;;;5057076;28;20013;-75
2022/05/24 09:43:42;;;;;;;;;;;16.90;99.90;;;;;;5052122;28;19920;-75
2022/05/24 09:46:22;;;;;;;;;;;17.20;99.90;;;;;;5057878;28;19908;-75
2022/05/24 09:48:56;;;;;;;;;;;19.40;99.90;;;;;;5070375;28;19913;-75
2022/05/24 09:51:32;;;;;;;;;;;20.50;98.80;;;;;;5054418;28;19909;-75
2022/05/24 09:53:58;;;;;;;;;;;19.70;96.30;;;;;;5071170;28;19908;-75
2022/05/24 09:56:33;;;;;;;;;;;19.00;98.10;;;;;;5072235;28;20601;-76
2022/05/24 09:59:03;;;;;;;;;;;17.90;96.90;;;;;;5071307;28;19947;-75
2022/05/24 10:01:43;;;;;;;;;;;18.40;95.50;;;;;;5058059;28;19909;-76
2022/05/24 10:04:11;;;;;;;;;;;17.20;97.70;;;;;;5052482;28;19920;-75
2022/05/24 10:06:39;;;;;;;;;;;17.50;98.50;;;;;;5046105;28;19909;-76
2022/05/24 10:09:10;;;;;;;;;;;18.70;96.10;;;;;;5045651;28;19977;-76
2022/05/24 10:11:41;;;;;;;;;;;20.20;97.50;;;;;;5058156;28;19977;-75
2022/05/24 10:14:06;;;;;;;;;;;20.50;93.30;;;;;;5051940;28;19909;-74
2022/05/24 10:16:46;;;;;;;;;;;20.60;93.00;;;;;;5056139;28;19932;-76
2022/05/24 10:19:18;;;;;;;;;;;20.80;91.60;;;;;;5055200;28;19974;-75
2022/05/24 10:21:49;;;;;;;;;;;21.10;91.30;;;;;;5051535;28;19917;-75
2022/05/24 10:24:38;;;;;;;;;;;22.00;90.90;;;;;;5048512;28;20229;-76
2022/05/24 10:27:21;;;;;;;;;;;21.50;90.50;;;;;;5048474;28;19935;-75
2022/05/24 10:29:49;;;;;;;;;;;21.90;91.50;;;;;;5053113;28;20102;-76
2022/05/24 10:38:17;;;;;;;;;;;21.20;81.80;;;;;;5053871;28;20008;-74
2022/05/24 10:40:48;;;;;;;;;;;20.30;83.10;;;;;;5066853;28;19995;-74
2022/05/24 10:43:35;;;;;;;;;;;19.60;83.90;;;;;;5054885;28;19912;-74
2022/05/24 10:46:03;;;;;;;;;;;19.90;86.80;;;;;;5046262;28;19909;-75
2022/05/24 10:48:38;;;;;;;;;;;18.50;85.00;;;;;;5056242;28;20412;-75
2022/05/24 10:51:12;;;;;;;;;;;19.00;88.20;;;;;;5050552;28;19919;-75
2022/05/24 10:53:50;;;;;;;;;;;19.50;85.30;;;;;;5051406;28;20358;-75
2022/05/24 10:56:37;;;;;;;;;;;21.50;89.70;;;;;;5070967;28;20007;-75
2022/05/24 10:59:10;;;;;;;;;;;20.50;84.80;;;;;;5046878;28;19909;-75
2022/05/24 11:01:42;;;;;;;;;;;21.00;83.30;;;;;;5034652;28;20031;-75
2022/05/24 11:04:10;;;;;;;;;;;21.60;83.00;;;;;;5050485;28;19912;-75
2022/05/24 11:06:39;;;;;;;;;;;20.20;80.70;;;;;;5050850;28;20409;-75
2022/05/24 11:09:14;;;;;;;;;;;19.20;78.40;;;;;;5069241;28;19935;-75
2022/05/24 11:11:43;;;;;;;;;;;20.30;79.90;;;;;;5058693;28;19915;-75
2022/05/24 11:14:08;;;;;;;;;;;20.90;83.70;;;;;;5062491;28;19913;-75
2022/05/24 11:16:44;;;;;;;;;;;21.00;81.90;;;;;;5058974;28;19908;-75
2022/05/24 11:19:17;;;;;;;;;;;21.50;86.20;;;;;;5054406;28;19916;-75
2022/05/24 11:21:50;;;;;;;;;;;22.50;80.00;;;;;;5058147;28;19909;-74
2022/05/24 11:24:28;;;;;;;;;;;21.80;78.10;;;;;;5053027;28;19999;-75
2022/05/24 11:26:55;;;;;;;;;;;20.70;78.20;;;;;;5053490;28;19948;-74
2022/05/24 11:29:40;;;;;;;;;;;20.60;80.00;;;;;;5054297;28;19935;-74
2022/05/24 11:32:09;;;;;;;;;;;20.40;84.50;;;;;;5053792;28;19909;-75
2022/05/24 11:34:40;;;;;;;;;;;21.20;82.50;;;;;;5070240;28;19974;-75
2022/05/24 11:37:25;;;;;;;;;;;22.00;79.70;;;;;;5064241;28;20392;-75
2022/05/24 11:39:52;;;;;;;;;;;22.70;81.50;;;;;;5060483;28;20308;-74
2022/05/24 11:42:17;;;;;;;;;;;23.30;86.70;;;;;;5055450;28;19909;-74
2022/05/24 11:44:43;;;;;;;;;;;22.50;73.70;;;;;;5052696;28;20396;-74
2022/05/24 11:47:08;;;;;;;;;;;22.50;71.50;;;;;;5053927;28;20328;-75
2022/05/24 11:49:34;;;;;;;;;;;22.50;76.60;;;;;;5054258;28;19963;-75
2022/05/24 11:52:00;;;;;;;;;;;22.20;74.40;;;;;;5052937;28;19917;-75
2022/05/24 11:54:28;;;;;;;;;;;22.60;75.70;;;;;;5064730;28;20286;-74
2022/05/24 11:57:14;;;;;;;;;;;23.50;70.50;;;;;;5053517;28;19913;-75
2022/05/24 11:59:40;;;;;;;;;;;22.70;68.60;;;;;;5051811;28;19908;-74
2022/05/24 12:02:20;;;;;;;;;;;22.70;71.70;;;;;;5056910;28;19916;-75
2022/05/24 12:07:55;;;;;;;;;;;24.80;72.40;;;;;;5058588;28;19915;-75
2022/05/24 12:10:21;;;;;;;;;;;23.90;68.70;;;;;;5048827;28;19909;-73
2022/05/24 12:12:50;;;;;;;;;;;22.60;74.20;;;;;;5056884;28;20389;-74
2022/05/24 12:15:21;;;;;;;;;;;21.80;73.00;;;;;;5059606;28;19909;-74
2022/05/24 12:17:51;;;;;;;;;;;19.50;79.80;;;;;;5054059;28;19909;-74
2022/05/24 12:20:34;;;;;;;;;;;19.20;82.30;;;;;;5061688;28;19963;-74
2022/05/24 12:23:15;;;;;;;;;;;19.10;82.50;;;;;;5060602;28;19954;-74
2022/05/24 12:25:59;;;;;;;;;;;19.30;85.50;;;;;;5056024;28;19909;-75
2022/05/24 12:28:25;;;;;;;;;;;20.80;85.20;;;;;;5055158;28;20007;-74
2022/05/24 12:30:51;;;;;;;;;;;24.00;79.50;;;;;;5057235;28;20322;-75
2022/05/24 12:33:18;;;;;;;;;;;27.10;68.00;;;;;;5067039;28;19919;-75
2022/05/24 12:36:10;;;;;;;;;;;23.00;68.40;;;;;;5067274;28;19919;-74
2022/05/24 12:38:36;;;;;;;;;;;21.40;73.20;;;;;;5064967;28;19954;-74
2022/05/24 12:41:25;;;;;;;;;;;20.90;69.70;;;;;;5074241;28;19908;-75
2022/05/24 12:43:51;;;;;;;;;;;19.30;75.80;;;;;;5062232;28;19920;-75
2022/05/24 12:46:16;;;;;;;;;;;21.10;79.00;;;;;;5066221;28;19978;-75
2022/05/24 12:48:42;;;;;;;;;;;25.20;70.60;;;;;;5067304;28;20357;-74
2022/05/24 12:51:09;;;;;;;;;;;27.90;58.60;;;;;;5063343;28;19909;-75
2022/05/24 12:53:35;;;;;;;;;;;28.20;61.70;;;;;;5066945;28;19925;-74
2022/05/24 12:56:05;;;;;;;;;;;24.20;66.80;;;;;;5044840;28;19970;-75
2022/05/24 12:58:36;;;;;;;;;;;20.70;70.00;;;;;;5047682;28;19913;-74
2022/05/24 13:01:10;;;;;;;;;;;25.10;68.00;;;;;;5061556;28;19908;-75
2022/05/24 13:03:36;;;;;;;;;;;28.10;60.20;;;;;;5059559;28;19919;-75
2022/05/24 13:06:02;;;;;;;;;;;29.30;55.90;;;;;;5055984;28;19909;-75
2022/05/24 13:08:28;;;;;;;;;;;24.70;61.60;;;;;;5072331;28;19909;-74
2022/05/24 13:10:55;;;;;;;;;;;26.50;62.50;;;;;;5069382;28;19908;-74
2022/05/24 13:13:22;;;;;;;;;;;25.20;61.20;;;;;;5071935;28;20400;-75
2022/05/24 13:15:56;;;;;;;;;;;26.00;61.60;;;;;;5065074;28;20381;-75
2022/05/24 13:18:21;;;;;;;;;;;25.40;61.80;;;;;;5066551;28;19908;-75
2022/05/24 13:20:48;;;;;;;;;;;25.60;59.10;;;;;;5066326;28;19935;-75
2022/05/24 13:23:14;;;;;;;;;;;28.30;55.90;;;;;;5053200;28;19928;-75
2022/05/24 13:25:44;;;;;;;;;;;26.80;67.00;;;;;;5060877;28;20366;-75
2022/05/24 13:28:10;;;;;;;;;;;27.20;59.50;;;;;;5048875;28;19962;-75
2022/05/24 13:33:35;;;;;;;;;;;29.10;52.50;;;;;;5056154;28;19969;-75
2022/05/24 13:36:15;;;;;;;;;;;26.60;58.70;;;;;;5072591;28;19908;-75
2022/05/24 13:38:41;;;;;;;;;;;24.80;64.40;;;;;;5033225;28;19909;-75
2022/05/24 13:41:07;;;;;;;;;;;21.10;67.20;;;;;;5053311;28;20319;-75
2022/05/24 13:43:38;;;;;;;;;;;24.00;66.60;;;;;;5064513;28;19923;-75
2022/05/24 13:46:07;;;;;;;;;;;25.50;60.60;;;;;;5055265;28;19917;-74
2022/05/24 13:48:38;;;;;;;;;;;23.70;61.70;;;;;;5046650;28;19915;-74
2022/05/24 13:51:04;;;;;;;;;;;24.20;62.20;;;;;;5062142;28;19992;-74
2022/05/24 13:53:33;;;;;;;;;;;27.70;57.70;;;;;;5059603;28;20289;-75
2022/05/24 13:56:00;;;;;;;;;;;29.00;55.20;;;;;;5060474;28;20062;-74
2022/05/24 13:58:32;;;;;;;;;;;27.80;54.50;;;;;;5059909;28;20322;-74
2022/05/24 14:01:09;;;;;;;;;;;24.10;62.80;;;;;;5053421;28;19908;-74
2022/05/24 14:03:53;;;;;;;;;;;21.90;66.20;;;;;;5071146;28;19931;-74
2022/05/24 14:06:25;;;;;;;;;;;21.70;68.70;;;;;;5060408;28;19908;-74
2022/05/24 14:08:52;;;;;;;;;;;23.10;65.70;;;;;;5064642;28;19912;-75
2022/05/24 14:11:25;;;;;;;;;;;23.30;64.80;;;;;;5058160;28;19916;-75
2022/05/24 14:13:51;;;;;;;;;;;27.20;57.00;;;;;;5067998;28;19916;-75
2022/05/24 14:16:18;;;;;;;;;;;27.90;56.10;;;;;;5054164;28;19909;-75
2022/05/24 14:18:44;;;;;;;;;;;28.20;52.30;;;;;;5066487;28;19913;-77
2022/05/24 14:21:10;;;;;;;;;;;28.70;50.90;;;;;;5055196;28;19916;-75
2022/05/24 14:23:36;;;;;;;;;;;29.20;51.50;;;;;;5058179;28;19967;-75
2022/05/24 14:26:03;;;;;;;;;;;24.70;57.30;;;;;;5052484;28;20335;-74
2022/05/24 14:28:29;;;;;;;;;;;22.40;61.50;;;;;;5058993;28;19962;-74
2022/05/24 14:30:54;;;;;;;;;;;22.10;64.60;;;;;;5070452;28;20393;-75
2022/05/24 14:33:21;;;;;;;;;;;21.50;68.10;;;;;;5069986;28;20544;-74
2022/05/24 14:35:46;;;;;;;;;;;20.90;68.20;;;;;;5066677;28;19992;-75
2022/05/24 14:38:13;;;;;;;;;;;20.60;65.80;;;;;;5066024;28;19948;-74
2022/05/24 14:40:38;;;;;;;;;;;19.80;61.70;;;;;;5065970;28;20274;-74
2022/05/24 14:43:12;;;;;;;;;;;19.90;68.80;;;;;;5061682;28;19920;-75
2022/05/24 14:45:38;;;;;;;;;;;20.20;73.60;;;;;;5060750;28;19952;-75
2022/05/24 14:48:03;;;;;;;;;;;20.10;70.20;;;;;;5058567;28;19919;-75
2022/05/24 14:50:29;;;;;;;;;;;20.40;75.60;;;;;;5057524;28;20332;-75
2022/05/24 14:52:55;;;;;;;;;;;20.60;74.70;;;;;;5057187;28;19913;-74
2022/05/24 14:55:22;;;;;;;;;;;25.50;64.10;;;;;;5050539;28;19940;-74
2022/05/24 14:57:47;;;;;;;;;;;22.60;65.80;;;;;;5051038;28;20386;-74
2022/05/24 15:00:13;;;;;;;;;;;21.00;67.40;;;;;;5054973;28;19908;-74